sensor_id;sensor_type;location;lat;lon;timestamp;temperature;humidity
30381;DHT22;17169;50.966;11.038;2024-01-15T00:00:47;1.10;99.90
30381;DHT22;17169;50.966;11.038;2024-01-15T00:03:51;1.00;99.90
30381;DHT22;17169;50.966;11.038;2024-01-15T00:06:53;1.00;99.90
30381;DHT22;17169;50.966;11.038;2024-01-15T00:09:56;1.00;99.90
30381;DHT22;17169;50.966;11.038;2024-01-15T00:12:58;1.10;99.90
30381;DHT22;17169;50.966;11.038;2024-01-15T00:16:00;1.10;99.90
30381;DHT22;17169;50.966;11.038;2024-01-15T00:19:04;1.00;99.90
30381;DHT22;17169;50.966;11.038;2024-01-15T00:22:07;1.00;99.90
30381;DHT22;17169;50.966;11.038;2024-01-15T00:25:09;1.10;99.90
30381;DHT22;17169;50.966;11.038;2024-01-15T00:28:11;1.10;99.90
30381;DHT22;17169;50.966;11.038;2024-01-15T00:31:16;1.00;99.90
30381;DHT22;17169;50.966;11.038;2024-01-15T00:34:19;1.00;99.90
30381;DHT22;17169;50.966;11.038;2024-01-15T00:37:22;1.00;99.90
30381;DHT22;17169;50.966;11.038;2024-01-15T00:40:24;1.00;99.90
30381;DHT22;17169;50.966;11.038;2024-01-15T00:43:27;1.00;99.90
30381;DHT22;17169;50.966;11.038;2024-01-15T00:46:29;1.00;99.90
30381;DHT22;17169;50.966;11.038;2024-01-15T00:49:33;1.00;99.90
30381;DHT22;17169;50.966;11.038;2024-01-15T00:52:35;0.90;99.90
30381;DHT22;17169;50.966;11.038;2024-01-15T00:55:37;0.90;99.90
30381;DHT22;17169;50.966;11.038;2024-01-15T00:58:40;0.90;99.90
30381;DHT22;17169;50.966;11.038;2024-01-15T01:01:43;0.80;99.90
30381;DHT22;17169;50.966;11.038;2024-01-15T01:04:48;0.80;99.90
30381;DHT22;17169;50.966;11.038;2024-01-15T01:07:50;0.70;99.90
30381;DHT22;17169;50.966;11.038;2024-01-15T01:10:53;0.70;99.90
30381;DHT22;17169;50.966;11.038;2024-01-15T01:13:55;0.70;99.90
30381;DHT22;17169;50.966;11.038;2024-01-15T01:16:57;0.70;99.90
30381;DHT22;17169;50.966;11.038;2024-01-15T01:20:01;0.70;99.90
30381;DHT22;17169;50.966;11.038;2024-01-15T01:23:05;0.70;99.90
30381;DHT22;17169;50.966;11.038;2024-01-15T01:26:07;0.70;99.90
30381;DHT22;17169;50.966;11.038;2024-01-15T01:29:10;0.70;99.90
30381;DHT22;17169;50.966;11.038;2024-01-15T01:32:12;0.70;99.90
30381;DHT22;17169;50.966;11.038;2024-01-15T01:35:16;0.70;99.90
30381;DHT22;17169;50.966;11.038;2024-01-15T01:38:18;0.70;99.90
30381;DHT22;17169;50.966;11.038;2024-01-15T01:41:20;0.70;99.90
30381;DHT22;17169;50.966;11.038;2024-01-15T01:44:25;0.70;99.90
30381;DHT22;17169;50.966;11.038;2024-01-15T01:47:27;0.60;99.90
30381;DHT22;17169;50.966;11.038;2024-01-15T01:50:31;0.60;99.90
30381;DHT22;17169;50.966;11.038;2024-01-15T01:53:35;0.50;99.90
30381;DHT22;17169;50.966;11.038;2024-01-15T01:56:39;0.50;99.90
30381;DHT22;17169;50.966;11.038;2024-01-15T01:59:41;0.60;99.90
30381;DHT22;17169;50.966;11.038;2024-01-15T02:02:44;0.60;99.90
30381;DHT22;17169;50.966;11.038;2024-01-15T02:05:49;0.60;99.90
30381;DHT22;17169;50.966;11.038;2024-01-15T02:08:51;0.60;99.90
30381;DHT22;17169;50.966;11.038;2024-01-15T02:11:54;0.70;99.90
30381;DHT22;17169;50.966;11.038;2024-01-15T02:14:56;0.60;99.90
30381;DHT22;17169;50.966;11.038;2024-01-15T02:18:00;0.70;99.90
30381;DHT22;17169;50.966;11.038;2024-01-15T02:21:04;0.70;99.90
30381;DHT22;17169;50.966;11.038;2024-01-15T02:24:08;0.70;99.90
30381;DHT22;17169;50.966;11.038;2024-01-15T02:27:10;0.60;99.90
30381;DHT22;17169;50.966;11.038;2024-01-15T02:30:13;0.60;99.90
30381;DHT22;17169;50.966;11.038;2024-01-15T02:33:15;0.70;99.90
30381;DHT22;17169;50.966;11.038;2024-01-15T02:36:18;0.70;99.90
30381;DHT22;17169;50.966;11.038;2024-01-15T02:39:21;0.70;99.90
30381;DHT22;17169;50.966;11.038;2024-01-15T02:42:26;0.70;99.90
30381;DHT22;17169;50.966;11.038;2024-01-15T02:45:28;0.70;99.90
30381;DHT22;17169;50.966;11.038;2024-01-15T02:48:31;0.80;99.90
30381;DHT22;17169;50.966;11.038;2024-01-15T02:51:33;0.80;99.90
30381;DHT22;17169;50.966;11.038;2024-01-15T02:54:37;0.70;99.90
30381;DHT22;17169;50.966;11.038;2024-01-15T02:57:40;0.70;99.90
30381;DHT22;17169;50.966;11.038;2024-01-15T03:00:42;0.80;99.90
30381;DHT22;17169;50.966;11.038;2024-01-15T03:03:44;0.80;99.90
30381;DHT22;17169;50.966;11.038;2024-01-15T03:06:47;0.80;99.90
30381;DHT22;17169;50.966;11.038;2024-01-15T03:09:50;0.80;99.90
30381;DHT22;17169;50.966;11.038;2024-01-15T03:12:53;0.80;99.90
30381;DHT22;17169;50.966;11.038;2024-01-15T03:15:55;0.80;99.90
30381;DHT22;17169;50.966;11.038;2024-01-15T03:18:57;0.80;99.90
30381;DHT22;17169;50.966;11.038;2024-01-15T03:22:00;0.80;99.90
30381;DHT22;17169;50.966;11.038;2024-01-15T03:25:07;0.70;99.90
30381;DHT22;17169;50.966;11.038;2024-01-15T03:28:09;0.70;99.90
30381;DHT22;17169;50.966;11.038;2024-01-15T03:31:11;0.70;99.90
30381;DHT22;17169;50.966;11.038;2024-01-15T03:34:14;0.60;99.90
30381;DHT22;17169;50.966;11.038;2024-01-15T03:37:16;0.60;99.90
30381;DHT22;17169;50.966;11.038;2024-01-15T03:40:20;0.70;99.90
30381;DHT22;17169;50.966;11.038;2024-01-15T03:43:22;0.60;99.90
30381;DHT22;17169;50.966;11.038;2024-01-15T03:46:24;0.60;99.90
30381;DHT22;17169;50.966;11.038;2024-01-15T03:49:27;0.60;99.90
30381;DHT22;17169;50.966;11.038;2024-01-15T03:52:29;0.60;99.90
30381;DHT22;17169;50.966;11.038;2024-01-15T03:55:33;0.70;99.90
30381;DHT22;17169;50.966;11.038;2024-01-15T03:58:35;0.70;99.90
30381;DHT22;17169;50.966;11.038;2024-01-15T04:01:38;0.70;99.90
30381;DHT22;17169;50.966;11.038;2024-01-15T04:04:41;0.70;99.90
30381;DHT22;17169;50.966;11.038;2024-01-15T04:07:44;0.70;99.90
30381;DHT22;17169;50.966;11.038;2024-01-15T04:10:47;0.70;99.90
30381;DHT22;17169;50.966;11.038;2024-01-15T04:13:50;0.80;99.90
30381;DHT22;17169;50.966;11.038;2024-01-15T04:16:52;0.80;99.90
30381;DHT22;17169;50.966;11.038;2024-01-15T04:19:54;0.70;99.90
30381;DHT22;17169;50.966;11.038;2024-01-15T04:22:57;0.70;99.90
30381;DHT22;17169;50.966;11.038;2024-01-15T04:26:01;0.70;99.90
30381;DHT22;17169;50.966;11.038;2024-01-15T04:29:03;0.60;99.90
30381;DHT22;17169;50.966;11.038;2024-01-15T04:32:05;0.50;99.90
30381;DHT22;17169;50.966;11.038;2024-01-15T04:35:08;0.50;99.90
30381;DHT22;17169;50.966;11.038;2024-01-15T04:38:10;0.50;99.90
30381;DHT22;17169;50.966;11.038;2024-01-15T04:41:14;0.40;99.90
30381;DHT22;17169;50.966;11.038;2024-01-15T04:44:18;0.30;99.90
30381;DHT22;17169;50.966;11.038;2024-01-15T04:47:20;0.30;99.90
30381;DHT22;17169;50.966;11.038;2024-01-15T04:50:23;0.30;99.90
30381;DHT22;17169;50.966;11.038;2024-01-15T04:53:25;0.30;99.90
30381;DHT22;17169;50.966;11.038;2024-01-15T04:56:29;0.30;99.90
30381;DHT22;17169;50.966;11.038;2024-01-15T04:59:31;0.30;99.90
30381;DHT22;17169;50.966;11.038;2024-01-15T05:02:34;0.30;99.90
30381;DHT22;17169;50.966;11.038;2024-01-15T05:05:36;0.40;99.90
30381;DHT22;17169;50.966;11.038;2024-01-15T05:08:38;0.50;99.90
30381;DHT22;17169;50.966;11.038;2024-01-15T05:11:42;0.50;99.90
30381;DHT22;17169;50.966;11.038;2024-01-15T05:14:44;0.50;99.90
30381;DHT22;17169;50.966;11.038;2024-01-15T05:17:47;0.50;99.90
30381;DHT22;17169;50.966;11.038;2024-01-15T05:20:49;0.50;99.90
30381;DHT22;17169;50.966;11.038;2024-01-15T05:23:53;0.40;99.90
30381;DHT22;17169;50.966;11.038;2024-01-15T05:26:57;0.40;99.90
30381;DHT22;17169;50.966;11.038;2024-01-15T05:29:59;0.30;99.90
30381;DHT22;17169;50.966;11.038;2024-01-15T05:33:01;0.20;99.90
30381;DHT22;17169;50.966;11.038;2024-01-15T05:36:05;0.20;99.90
30381;DHT22;17169;50.966;11.038;2024-01-15T05:39:07;0.10;99.90
30381;DHT22;17169;50.966;11.038;2024-01-15T05:42:11;0.10;99.90
30381;DHT22;17169;50.966;11.038;2024-01-15T05:45:13;0.00;99.90
30381;DHT22;17169;50.966;11.038;2024-01-15T05:48:16;0.00;99.90
30381;DHT22;17169;50.966;11.038;2024-01-15T05:51:18;0.00;99.90
30381;DHT22;17169;50.966;11.038;2024-01-15T05:54:20;0.00;99.90
30381;DHT22;17169;50.966;11.038;2024-01-15T05:57:24;0.00;99.90
30381;DHT22;17169;50.966;11.038;2024-01-15T06:00:27;0.10;99.90
30381;DHT22;17169;50.966;11.038;2024-01-15T06:03:29;0.10;99.90
30381;DHT22;17169;50.966;11.038;2024-01-15T06:06:32;0.20;99.90
30381;DHT22;17169;50.966;11.038;2024-01-15T06:09:34;0.20;99.90
30381;DHT22;17169;50.966;11.038;2024-01-15T06:12:38;0.20;99.90
30381;DHT22;17169;50.966;11.038;2024-01-15T06:15:40;0.30;99.90
30381;DHT22;17169;50.966;11.038;2024-01-15T06:18:42;0.30;99.90
30381;DHT22;17169;50.966;11.038;2024-01-15T06:21:45;0.30;99.90
30381;DHT22;17169;50.966;11.038;2024-01-15T06:24:47;0.30;99.90
30381;DHT22;17169;50.966;11.038;2024-01-15T06:27:51;0.30;99.90
30381;DHT22;17169;50.966;11.038;2024-01-15T06:30:53;0.30;99.90
30381;DHT22;17169;50.966;11.038;2024-01-15T06:33:56;0.30;99.90
30381;DHT22;17169;50.966;11.038;2024-01-15T06:36:58;0.30;99.90
30381;DHT22;17169;50.966;11.038;2024-01-15T06:40:00;0.30;99.90
30381;DHT22;17169;50.966;11.038;2024-01-15T06:43:05;0.30;99.90
30381;DHT22;17169;50.966;11.038;2024-01-15T06:46:07;0.30;99.90
30381;DHT22;17169;50.966;11.038;2024-01-15T06:49:10;0.30;99.90
30381;DHT22;17169;50.966;11.038;2024-01-15T06:52:13;0.30;99.90
30381;DHT22;17169;50.966;11.038;2024-01-15T06:55:15;0.30;99.90
30381;DHT22;17169;50.966;11.038;2024-01-15T06:58:19;0.30;99.90
30381;DHT22;17169;50.966;11.038;2024-01-15T07:01:21;0.30;99.90
30381;DHT22;17169;50.966;11.038;2024-01-15T07:04:24;0.30;99.90
30381;DHT22;17169;50.966;11.038;2024-01-15T07:07:26;0.30;99.90
30381;DHT22;17169;50.966;11.038;2024-01-15T07:10:30;0.40;99.90
30381;DHT22;17169;50.966;11.038;2024-01-15T07:13:35;0.30;99.90
30381;DHT22;17169;50.966;11.038;2024-01-15T07:16:38;0.30;99.90
30381;DHT22;17169;50.966;11.038;2024-01-15T07:19:40;0.40;99.90
30381;DHT22;17169;50.966;11.038;2024-01-15T07:22:43;0.40;99.90
30381;DHT22;17169;50.966;11.038;2024-01-15T07:25:45;0.40;99.90
30381;DHT22;17169;50.966;11.038;2024-01-15T07:28:49;0.50;99.90
30381;DHT22;17169;50.966;11.038;2024-01-15T07:31:51;0.50;99.90
30381;DHT22;17169;50.966;11.038;2024-01-15T07:34:54;0.50;99.90
30381;DHT22;17169;50.966;11.038;2024-01-15T07:37:56;0.50;99.90
30381;DHT22;17169;50.966;11.038;2024-01-15T07:40:59;0.50;99.90
30381;DHT22;17169;50.966;11.038;2024-01-15T07:44:03;0.50;99.90
30381;DHT22;17169;50.966;11.038;2024-01-15T07:47:06;0.40;99.90
30381;DHT22;17169;50.966;11.038;2024-01-15T07:50:09;0.40;99.90
30381;DHT22;17169;50.966;11.038;2024-01-15T07:53:12;0.40;99.90
30381;DHT22;17169;50.966;11.038;2024-01-15T07:56:14;0.40;99.90
30381;DHT22;17169;50.966;11.038;2024-01-15T07:59:18;0.50;99.90
30381;DHT22;17169;50.966;11.038;2024-01-15T08:02:20;0.50;99.90
30381;DHT22;17169;50.966;11.038;2024-01-15T08:05:23;0.50;99.90
30381;DHT22;17169;50.966;11.038;2024-01-15T08:08:26;0.50;99.90
30381;DHT22;17169;50.966;11.038;2024-01-15T08:11:28;0.50;99.90
30381;DHT22;17169;50.966;11.038;2024-01-15T08:14:32;0.50;99.90
30381;DHT22;17169;50.966;11.038;2024-01-15T08:17:35;0.50;99.90
30381;DHT22;17169;50.966;11.038;2024-01-15T08:20:37;0.50;99.90
30381;DHT22;17169;50.966;11.038;2024-01-15T08:23:40;0.50;99.90
30381;DHT22;17169;50.966;11.038;2024-01-15T08:26:42;0.40;99.90
30381;DHT22;17169;50.966;11.038;2024-01-15T08:29:46;0.50;99.90
30381;DHT22;17169;50.966;11.038;2024-01-15T08:32:49;0.50;99.90
30381;DHT22;17169;50.966;11.038;2024-01-15T08:35:51;0.50;99.90
30381;DHT22;17169;50.966;11.038;2024-01-15T08:38:53;0.50;99.90
30381;DHT22;17169;50.966;11.038;2024-01-15T08:41:57;0.50;99.90
30381;DHT22;17169;50.966;11.038;2024-01-15T08:45:01;0.50;99.90
30381;DHT22;17169;50.966;11.038;2024-01-15T08:48:03;0.60;99.90
30381;DHT22;17169;50.966;11.038;2024-01-15T08:51:06;0.60;99.90
30381;DHT22;17169;50.966;11.038;2024-01-15T08:54:09;0.70;99.90
30381;DHT22;17169;50.966;11.038;2024-01-15T08:57:11;0.70;99.90
30381;DHT22;17169;50.966;11.038;2024-01-15T09:00:16;0.70;99.90
30381;DHT22;17169;50.966;11.038;2024-01-15T09:03:18;0.70;99.90
30381;DHT22;17169;50.966;11.038;2024-01-15T09:06:21;0.70;99.90
30381;DHT22;17169;50.966;11.038;2024-01-15T09:09:23;0.80;99.90
30381;DHT22;17169;50.966;11.038;2024-01-15T09:12:25;0.90;99.90
30381;DHT22;17169;50.966;11.038;2024-01-15T09:15:29;0.90;99.90
30381;DHT22;17169;50.966;11.038;2024-01-15T09:18:32;1.00;99.90
30381;DHT22;17169;50.966;11.038;2024-01-15T09:21:34;1.10;99.90
30381;DHT22;17169;50.966;11.038;2024-01-15T09:24:36;1.10;99.90
30381;DHT22;17169;50.966;11.038;2024-01-15T09:27:39;1.10;99.90
30381;DHT22;17169;50.966;11.038;2024-01-15T09:30:42;1.20;99.90
30381;DHT22;17169;50.966;11.038;2024-01-15T09:33:46;1.20;99.90
30381;DHT22;17169;50.966;11.038;2024-01-15T09:36:48;1.20;99.90
30381;DHT22;17169;50.966;11.038;2024-01-15T09:39:50;1.30;99.90
30381;DHT22;17169;50.966;11.038;2024-01-15T09:42:53;1.40;99.90
30381;DHT22;17169;50.966;11.038;2024-01-15T09:45:57;1.40;99.90
30381;DHT22;17169;50.966;11.038;2024-01-15T09:49:00;1.50;99.90
30381;DHT22;17169;50.966;11.038;2024-01-15T09:52:03;1.50;99.90
30381;DHT22;17169;50.966;11.038;2024-01-15T09:55:09;1.50;99.90
30381;DHT22;17169;50.966;11.038;2024-01-15T09:58:13;1.60;99.90
30381;DHT22;17169;50.966;11.038;2024-01-15T10:01:17;1.60;99.90
30381;DHT22;17169;50.966;11.038;2024-01-15T10:04:19;1.60;99.90
30381;DHT22;17169;50.966;11.038;2024-01-15T10:07:23;1.60;99.90
30381;DHT22;17169;50.966;11.038;2024-01-15T10:10:27;1.70;99.90
30381;DHT22;17169;50.966;11.038;2024-01-15T10:13:30;1.70;99.90
30381;DHT22;17169;50.966;11.038;2024-01-15T10:16:34;1.70;99.90
30381;DHT22;17169;50.966;11.038;2024-01-15T10:19:36;1.80;99.90
30381;DHT22;17169;50.966;11.038;2024-01-15T10:22:40;1.90;99.90
30381;DHT22;17169;50.966;11.038;2024-01-15T10:25:44;1.90;99.90
30381;DHT22;17169;50.966;11.038;2024-01-15T10:28:50;1.90;99.90
30381;DHT22;17169;50.966;11.038;2024-01-15T10:31:54;1.90;99.90
30381;DHT22;17169;50.966;11.038;2024-01-15T10:34:57;1.90;99.90
30381;DHT22;17169;50.966;11.038;2024-01-15T10:38:00;1.90;99.90
30381;DHT22;17169;50.966;11.038;2024-01-15T10:41:02;2.00;99.90
30381;DHT22;17169;50.966;11.038;2024-01-15T10:44:05;1.90;99.90
30381;DHT22;17169;50.966;11.038;2024-01-15T10:47:09;2.00;99.90
30381;DHT22;17169;50.966;11.038;2024-01-15T10:50:12;2.00;99.90
30381;DHT22;17169;50.966;11.038;2024-01-15T10:53:15;2.10;99.90
30381;DHT22;17169;50.966;11.038;2024-01-15T10:56:18;2.10;99.90
30381;DHT22;17169;50.966;11.038;2024-01-15T10:59:21;2.10;99.90
30381;DHT22;17169;50.966;11.038;2024-01-15T11:02:26;2.00;99.90
30381;DHT22;17169;50.966;11.038;2024-01-15T11:05:28;2.10;99.90
30381;DHT22;17169;50.966;11.038;2024-01-15T11:08:31;2.00;99.90
30381;DHT22;17169;50.966;11.038;2024-01-15T11:11:35;2.10;99.90
30381;DHT22;17169;50.966;11.038;2024-01-15T11:14:41;2.10;99.90
30381;DHT22;17169;50.966;11.038;2024-01-15T11:18:02;2.20;99.90
30381;DHT22;17169;50.966;11.038;2024-01-15T11:21:23;2.10;99.90
30381;DHT22;17169;50.966;11.038;2024-01-15T11:24:36;2.10;99.90
30381;DHT22;17169;50.966;11.038;2024-01-15T11:27:40;2.10;99.90
30381;DHT22;17169;50.966;11.038;2024-01-15T11:30:43;2.00;99.90
30381;DHT22;17169;50.966;11.038;2024-01-15T11:33:49;2.20;99.90
30381;DHT22;17169;50.966;11.038;2024-01-15T11:37:01;2.30;99.90
30381;DHT22;17169;50.966;11.038;2024-01-15T11:40:05;2.30;99.90
30381;DHT22;17169;50.966;11.038;2024-01-15T11:43:12;2.30;99.90
30381;DHT22;17169;50.966;11.038;2024-01-15T11:46:18;2.40;99.90
30381;DHT22;17169;50.966;11.038;2024-01-15T11:49:30;2.40;99.90
30381;DHT22;17169;50.966;11.038;2024-01-15T11:52:37;2.50;99.90
30381;DHT22;17169;50.966;11.038;2024-01-15T11:55:41;2.60;99.90
30381;DHT22;17169;50.966;11.038;2024-01-15T11:58:46;2.50;99.90
30381;DHT22;17169;50.966;11.038;2024-01-15T12:01:48;2.50;99.90
30381;DHT22;17169;50.966;11.038;2024-01-15T12:04:52;2.50;99.90
30381;DHT22;17169;50.966;11.038;2024-01-15T12:07:54;2.60;99.90
30381;DHT22;17169;50.966;11.038;2024-01-15T12:10:57;2.60;99.90
30381;DHT22;17169;50.966;11.038;2024-01-15T12:14:00;2.70;99.90
30381;DHT22;17169;50.966;11.038;2024-01-15T12:17:02;2.70;99.90
30381;DHT22;17169;50.966;11.038;2024-01-15T12:20:07;2.70;99.90
30381;DHT22;17169;50.966;11.038;2024-01-15T12:23:10;2.60;99.90
30381;DHT22;17169;50.966;11.038;2024-01-15T12:26:12;2.60;99.90
30381;DHT22;17169;50.966;11.038;2024-01-15T12:29:17;2.70;99.90
30381;DHT22;17169;50.966;11.038;2024-01-15T12:32:19;2.70;99.90
30381;DHT22;17169;50.966;11.038;2024-01-15T12:35:24;2.70;99.90
30381;DHT22;17169;50.966;11.038;2024-01-15T12:38:28;2.80;99.90
30381;DHT22;17169;50.966;11.038;2024-01-15T12:41:30;2.80;99.90
30381;DHT22;17169;50.966;11.038;2024-01-15T12:44:34;2.80;99.90
30381;DHT22;17169;50.966;11.038;2024-01-15T12:47:37;2.90;99.90
30381;DHT22;17169;50.966;11.038;2024-01-15T12:50:42;2.90;99.90
30381;DHT22;17169;50.966;11.038;2024-01-15T12:53:46;2.90;99.90
30381;DHT22;17169;50.966;11.038;2024-01-15T12:56:48;2.90;99.90
30381;DHT22;17169;50.966;11.038;2024-01-15T12:59:51;2.80;99.90
30381;DHT22;17169;50.966;11.038;2024-01-15T13:02:53;2.90;99.90
30381;DHT22;17169;50.966;11.038;2024-01-15T13:05:59;3.00;99.90
30381;DHT22;17169;50.966;11.038;2024-01-15T13:09:02;2.90;99.90
30381;DHT22;17169;50.966;11.038;2024-01-15T13:12:06;3.00;99.90
30381;DHT22;17169;50.966;11.038;2024-01-15T13:15:09;3.10;99.90
30381;DHT22;17169;50.966;11.038;2024-01-15T13:18:12;3.00;99.90
30381;DHT22;17169;50.966;11.038;2024-01-15T13:21:16;3.00;99.90
30381;DHT22;17169;50.966;11.038;2024-01-15T13:24:19;2.90;99.90
30381;DHT22;17169;50.966;11.038;2024-01-15T13:27:21;2.90;99.90
30381;DHT22;17169;50.966;11.038;2024-01-15T13:30:24;2.90;99.90
30381;DHT22;17169;50.966;11.038;2024-01-15T13:33:26;2.90;99.90
30381;DHT22;17169;50.966;11.038;2024-01-15T13:36:30;2.80;99.90
30381;DHT22;17169;50.966;11.038;2024-01-15T13:39:32;2.80;99.90
30381;DHT22;17169;50.966;11.038;2024-01-15T13:42:35;2.70;99.90
30381;DHT22;17169;50.966;11.038;2024-01-15T13:45:39;2.60;99.90
30381;DHT22;17169;50.966;11.038;2024-01-15T13:48:41;2.50;99.90
30381;DHT22;17169;50.966;11.038;2024-01-15T13:51:45;2.50;99.90
30381;DHT22;17169;50.966;11.038;2024-01-15T13:54:47;2.70;99.90
30381;DHT22;17169;50.966;11.038;2024-01-15T13:57:49;2.80;99.90
30381;DHT22;17169;50.966;11.038;2024-01-15T14:00:52;2.90;99.90
30381;DHT22;17169;50.966;11.038;2024-01-15T14:03:54;2.90;99.90
30381;DHT22;17169;50.966;11.038;2024-01-15T14:06:58;2.90;99.90
30381;DHT22;17169;50.966;11.038;2024-01-15T14:10:00;2.90;99.90
30381;DHT22;17169;50.966;11.038;2024-01-15T14:13:03;2.80;99.90
30381;DHT22;17169;50.966;11.038;2024-01-15T14:16:06;2.70;99.90
30381;DHT22;17169;50.966;11.038;2024-01-15T14:19:08;2.60;99.90
30381;DHT22;17169;50.966;11.038;2024-01-15T14:22:12;2.60;99.90
30381;DHT22;17169;50.966;11.038;2024-01-15T14:25:15;2.50;99.90
30381;DHT22;17169;50.966;11.038;2024-01-15T14:28:17;2.50;99.90
30381;DHT22;17169;50.966;11.038;2024-01-15T14:31:20;2.40;99.90
30381;DHT22;17169;50.966;11.038;2024-01-15T14:34:22;2.40;99.90
30381;DHT22;17169;50.966;11.038;2024-01-15T14:37:26;2.30;99.90
30381;DHT22;17169;50.966;11.038;2024-01-15T14:40:29;2.30;99.90
30381;DHT22;17169;50.966;11.038;2024-01-15T14:43:31;2.30;99.90
30381;DHT22;17169;50.966;11.038;2024-01-15T14:46:34;2.30;99.90
30381;DHT22;17169;50.966;11.038;2024-01-15T14:49:36;2.20;99.90
30381;DHT22;17169;50.966;11.038;2024-01-15T14:52:40;2.20;99.90
30381;DHT22;17169;50.966;11.038;2024-01-15T14:55:43;2.30;99.90
30381;DHT22;17169;50.966;11.038;2024-01-15T14:58:45;2.30;99.90
30381;DHT22;17169;50.966;11.038;2024-01-15T15:01:48;2.40;99.90
30381;DHT22;17169;50.966;11.038;2024-01-15T15:04:50;2.40;99.90
30381;DHT22;17169;50.966;11.038;2024-01-15T15:07:54;2.40;99.90
30381;DHT22;17169;50.966;11.038;2024-01-15T15:10:56;2.30;99.90
30381;DHT22;17169;50.966;11.038;2024-01-15T15:13:59;2.20;99.90
30381;DHT22;17169;50.966;11.038;2024-01-15T15:17:01;2.20;99.90
30381;DHT22;17169;50.966;11.038;2024-01-15T15:20:04;2.10;99.90
30381;DHT22;17169;50.966;11.038;2024-01-15T15:23:08;2.10;99.90
30381;DHT22;17169;50.966;11.038;2024-01-15T15:26:12;2.10;99.90
30381;DHT22;17169;50.966;11.038;2024-01-15T15:29:14;2.10;99.90
30381;DHT22;17169;50.966;11.038;2024-01-15T15:32:17;2.10;99.90
30381;DHT22;17169;50.966;11.038;2024-01-15T15:35:20;2.00;99.90
30381;DHT22;17169;50.966;11.038;2024-01-15T15:38:23;2.00;99.90
30381;DHT22;17169;50.966;11.038;2024-01-15T15:41:26;1.90;99.90
30381;DHT22;17169;50.966;11.038;2024-01-15T15:44:29;1.80;99.90
30381;DHT22;17169;50.966;11.038;2024-01-15T15:47:31;1.70;99.90
30381;DHT22;17169;50.966;11.038;2024-01-15T15:50:34;1.60;99.90
30381;DHT22;17169;50.966;11.038;2024-01-15T15:53:38;1.60;99.90
30381;DHT22;17169;50.966;11.038;2024-01-15T15:56:40;1.50;99.90
30381;DHT22;17169;50.966;11.038;2024-01-15T15:59:43;1.40;99.90
30381;DHT22;17169;50.966;11.038;2024-01-15T16:02:45;1.50;99.90
30381;DHT22;17169;50.966;11.038;2024-01-15T16:05:48;1.40;99.90
30381;DHT22;17169;50.966;11.038;2024-01-15T16:08:52;1.50;99.90
30381;DHT22;17169;50.966;11.038;2024-01-15T16:11:55;1.50;99.90
30381;DHT22;17169;50.966;11.038;2024-01-15T16:14:59;1.50;99.90
30381;DHT22;17169;50.966;11.038;2024-01-15T16:18:01;1.60;99.90
30381;DHT22;17169;50.966;11.038;2024-01-15T16:21:04;1.60;99.90
30381;DHT22;17169;50.966;11.038;2024-01-15T16:24:08;1.60;99.90
30381;DHT22;17169;50.966;11.038;2024-01-15T16:27:11;1.70;99.90
30381;DHT22;17169;50.966;11.038;2024-01-15T16:30:13;1.80;99.90
30381;DHT22;17169;50.966;11.038;2024-01-15T16:33:16;1.80;99.90
30381;DHT22;17169;50.966;11.038;2024-01-15T16:36:18;1.80;99.90
30381;DHT22;17169;50.966;11.038;2024-01-15T16:39:23;1.80;99.90
30381;DHT22;17169;50.966;11.038;2024-01-15T16:42:26;1.90;99.90
30381;DHT22;17169;50.966;11.038;2024-01-15T16:45:29;2.00;99.90
30381;DHT22;17169;50.966;11.038;2024-01-15T16:48:31;2.00;99.90
30381;DHT22;17169;50.966;11.038;2024-01-15T16:51:34;2.00;99.90
30381;DHT22;17169;50.966;11.038;2024-01-15T16:54:38;2.10;99.90
30381;DHT22;17169;50.966;11.038;2024-01-15T16:57:40;2.00;99.90
30381;DHT22;17169;50.966;11.038;2024-01-15T17:00:42;2.10;99.90
30381;DHT22;17169;50.966;11.038;2024-01-15T17:03:45;2.10;99.90
30381;DHT22;17169;50.966;11.038;2024-01-15T17:06:47;2.10;99.90
30381;DHT22;17169;50.966;11.038;2024-01-15T17:09:51;2.10;99.90
30381;DHT22;17169;50.966;11.038;2024-01-15T17:12:53;2.10;99.90
30381;DHT22;17169;50.966;11.038;2024-01-15T17:15:55;2.10;99.90
30381;DHT22;17169;50.966;11.038;2024-01-15T17:18:58;2.10;99.90
30381;DHT22;17169;50.966;11.038;2024-01-15T17:22:00;2.10;99.90
30381;DHT22;17169;50.966;11.038;2024-01-15T17:25:05;2.10;99.90
30381;DHT22;17169;50.966;11.038;2024-01-15T17:28:07;2.10;99.90
30381;DHT22;17169;50.966;11.038;2024-01-15T17:31:10;2.10;99.90
30381;DHT22;17169;50.966;11.038;2024-01-15T17:34:13;2.10;99.90
30381;DHT22;17169;50.966;11.038;2024-01-15T17:37:15;2.00;99.90
30381;DHT22;17169;50.966;11.038;2024-01-15T17:40:19;2.10;99.90
30381;DHT22;17169;50.966;11.038;2024-01-15T17:43:23;2.10;99.90
30381;DHT22;17169;50.966;11.038;2024-01-15T17:46:25;2.10;99.90
30381;DHT22;17169;50.966;11.038;2024-01-15T17:49:29;2.10;99.90
30381;DHT22;17169;50.966;11.038;2024-01-15T17:52:31;2.10;99.90
30381;DHT22;17169;50.966;11.038;2024-01-15T17:55:35;2.10;99.90
30381;DHT22;17169;50.966;11.038;2024-01-15T17:58:37;2.10;99.90
30381;DHT22;17169;50.966;11.038;2024-01-15T18:01:41;2.10;99.90
30381;DHT22;17169;50.966;11.038;2024-01-15T18:04:44;2.10;99.90
30381;DHT22;17169;50.966;11.038;2024-01-15T18:07:47;2.00;99.90
30381;DHT22;17169;50.966;11.038;2024-01-15T18:10:51;1.80;99.90
30381;DHT22;17169;50.966;11.038;2024-01-15T18:13:53;1.80;99.90
30381;DHT22;17169;50.966;11.038;2024-01-15T18:16:56;1.70;99.90
30381;DHT22;17169;50.966;11.038;2024-01-15T18:19:59;1.60;99.90
30381;DHT22;17169;50.966;11.038;2024-01-15T18:23:01;1.60;99.90
30381;DHT22;17169;50.966;11.038;2024-01-15T18:26:05;1.70;99.90
30381;DHT22;17169;50.966;11.038;2024-01-15T18:29:08;1.70;99.90
30381;DHT22;17169;50.966;11.038;2024-01-15T18:32:10;1.70;99.90
30381;DHT22;17169;50.966;11.038;2024-01-15T18:35:13;1.70;99.90
30381;DHT22;17169;50.966;11.038;2024-01-15T18:38:15;1.70;99.90
30381;DHT22;17169;50.966;11.038;2024-01-15T18:41:22;1.70;99.90
30381;DHT22;17169;50.966;11.038;2024-01-15T18:44:25;1.70;99.90
30381;DHT22;17169;50.966;11.038;2024-01-15T18:47:27;1.70;99.90
30381;DHT22;17169;50.966;11.038;2024-01-15T18:50:30;1.70;99.90
30381;DHT22;17169;50.966;11.038;2024-01-15T18:53:32;1.70;99.90
30381;DHT22;17169;50.966;11.038;2024-01-15T18:56:41;1.70;99.90
30381;DHT22;17169;50.966;11.038;2024-01-15T18:59:43;1.70;99.90
30381;DHT22;17169;50.966;11.038;2024-01-15T19:02:46;1.70;99.90
30381;DHT22;17169;50.966;11.038;2024-01-15T19:05:49;1.70;99.90
30381;DHT22;17169;50.966;11.038;2024-01-15T19:08:51;1.80;99.90
30381;DHT22;17169;50.966;11.038;2024-01-15T19:11:55;1.80;99.90
30381;DHT22;17169;50.966;11.038;2024-01-15T19:14:57;1.80;99.90